createdAt,value
2022-10-23T00:01:23.262Z,51.95
2022-10-23T00:04:00.209Z,48.75
2022-10-23T00:06:28.259Z,52.13
2022-10-23T00:08:56.435Z,47.53
2022-10-23T00:11:26.300Z,46.78
2022-10-23T00:14:00.313Z,49.22
2022-10-23T00:16:28.548Z,45.25
2022-10-23T00:18:55.998Z,39.08
2022-10-23T00:21:23.861Z,43.42
2022-10-23T00:23:51.101Z,50.10
2022-10-23T00:26:18.614Z,49.08
2022-10-23T00:28:49.205Z,123.35
2022-10-23T00:31:16.784Z,77.43
2022-10-23T00:33:44.544Z,63.03
2022-10-23T00:36:12.942Z,56.92
2022-10-23T00:38:40.778Z,56.35
2022-10-23T00:41:09.326Z,49.58
2022-10-23T00:44:03.309Z,49.60
2022-10-23T00:46:30.646Z,53.25
2022-10-23T00:48:59.317Z,44.45
2022-10-23T00:51:31.449Z,52.38
2022-10-23T00:54:12.904Z,40.97
2022-10-23T00:56:47.646Z,48.00
2022-10-23T00:59:15.523Z,47.70
2022-10-23T01:01:43.235Z,45.13
2022-10-23T01:04:10.946Z,45.13
2022-10-23T01:07:01.907Z,41.15
2022-10-23T01:09:42.137Z,49.70
2022-10-23T01:12:30.498Z,42.20
2022-10-23T01:15:07.594Z,42.65
2022-10-23T01:18:00.030Z,40.70
2022-10-23T01:20:35.311Z,50.00
2022-10-23T01:23:03.162Z,47.85
2022-10-23T01:25:59.558Z,41.88
2022-10-23T01:28:53.281Z,50.60
2022-10-23T01:31:36.820Z,48.10
2022-10-23T01:34:14.176Z,48.05
2022-10-23T01:36:46.996Z,42.50
2022-10-23T01:39:28.559Z,38.20
2022-10-23T01:42:11.067Z,39.85
2022-10-23T01:44:59.451Z,40.08
2022-10-23T01:47:31.034Z,41.20
2022-10-23T01:50:06.271Z,43.13
2022-10-23T01:52:34.511Z,39.85
2022-10-23T01:55:05.756Z,40.90
2022-10-23T01:57:36.458Z,36.17
2022-10-23T02:00:15.584Z,37.88
2022-10-23T02:02:52.983Z,39.58
2022-10-23T02:05:26.326Z,33.20
2022-10-23T02:07:54.470Z,39.30
2022-10-23T02:10:27.006Z,38.95
2022-10-23T02:13:13.125Z,33.88
2022-10-23T02:15:43.296Z,35.45
2022-10-23T02:18:32.277Z,32.20
2022-10-23T02:21:07.647Z,34.15
2022-10-23T02:23:45.320Z,36.50
2022-10-23T02:26:12.314Z,32.70
2022-10-23T02:29:23.810Z,29.95
2022-10-23T02:31:50.871Z,36.00
2022-10-23T02:34:19.501Z,32.33
2022-10-23T02:36:46.780Z,32.72
2022-10-23T02:39:14.140Z,35.55
2022-10-23T02:41:51.243Z,33.35
2022-10-23T02:44:19.669Z,40.20
2022-10-23T02:47:10.246Z,34.95
2022-10-23T02:49:53.911Z,34.00
2022-10-23T02:53:00.044Z,36.25
2022-10-23T02:55:34.754Z,40.33
2022-10-23T02:58:16.516Z,36.90
2022-10-23T03:00:52.229Z,36.33
2022-10-23T03:03:34.292Z,31.52
2022-10-23T03:06:01.858Z,34.20
2022-10-23T03:08:28.982Z,38.13
2022-10-23T03:10:56.698Z,31.23
2022-10-23T03:13:24.156Z,32.15
2022-10-23T03:15:51.417Z,28.65
2022-10-23T03:18:18.472Z,28.70
2022-10-23T03:20:49.533Z,33.40
2022-10-23T03:23:16.574Z,31.63
2022-10-23T03:25:43.797Z,31.13
2022-10-23T03:28:22.276Z,31.38
2022-10-23T03:30:49.566Z,35.00
2022-10-23T03:33:16.722Z,30.75
2022-10-23T03:35:44.435Z,29.75
2022-10-23T03:38:14.402Z,35.40
2022-10-23T03:40:42.910Z,29.83
2022-10-23T03:43:13.045Z,32.03
2022-10-23T03:45:41.464Z,31.15
2022-10-23T03:48:08.720Z,30.02
2022-10-23T03:50:36.836Z,36.80
2022-10-23T03:53:05.693Z,35.40
2022-10-23T03:55:34.726Z,32.83
2022-10-23T03:58:01.969Z,37.55
2022-10-23T04:00:29.268Z,38.47
2022-10-23T04:02:56.373Z,38.97
2022-10-23T04:05:23.639Z,46.92
2022-10-23T04:07:55.230Z,40.60
2022-10-23T04:10:22.666Z,37.50
2022-10-23T04:12:50.810Z,42.55
2022-10-23T04:15:18.220Z,36.40
2022-10-23T04:17:46.810Z,49.90
2022-10-23T04:20:14.515Z,51.03
2022-10-23T04:22:42.046Z,49.78
2022-10-23T04:25:10.924Z,51.00
2022-10-23T04:27:38.133Z,51.55
2022-10-23T04:30:06.078Z,54.55
2022-10-23T04:32:33.098Z,45.08
2022-10-23T04:35:00.772Z,50.70
2022-10-23T04:37:30.607Z,51.70
2022-10-23T04:39:57.858Z,53.65
2022-10-23T04:42:24.963Z,64.45
2022-10-23T04:44:52.528Z,58.55
2022-10-23T04:47:19.752Z,63.95
2022-10-23T04:49:56.505Z,66.47
2022-10-23T04:52:57.377Z,70.85
2022-10-23T04:56:02.946Z,63.85
2022-10-23T04:58:46.070Z,70.15
2022-10-23T05:01:13.471Z,62.10
2022-10-23T05:03:40.576Z,58.80
2022-10-23T05:06:08.766Z,55.45
2022-10-23T05:09:04.864Z,61.58
2022-10-23T05:11:44.454Z,60.85
2022-10-23T05:14:11.567Z,62.38
2022-10-23T05:16:52.067Z,55.17
2022-10-23T05:19:24.448Z,57.53
2022-10-23T05:21:55.881Z,48.42
2022-10-23T05:27:00.667Z,63.90
2022-10-23T05:29:30.771Z,53.75
2022-10-23T05:32:02.507Z,57.75
2022-10-23T05:34:35.149Z,69.45
2022-10-23T05:37:05.720Z,66.63
2022-10-23T05:39:36.953Z,59.92
2022-10-23T05:42:08.885Z,67.95
2022-10-23T05:44:37.579Z,75.18
2022-10-23T05:47:19.129Z,67.90
2022-10-23T05:50:05.425Z,75.15
2022-10-23T05:53:11.544Z,82.88
2022-10-23T05:55:50.431Z,99.43
2022-10-23T05:58:50.007Z,88.15
2022-10-23T06:01:29.146Z,78.07
2022-10-23T06:04:04.917Z,84.22
2022-10-23T06:06:56.057Z,72.32
2022-10-23T06:09:23.655Z,76.95
2022-10-23T06:11:56.219Z,61.33
2022-10-23T06:14:23.963Z,88.45
2022-10-23T06:16:52.391Z,69.32
2022-10-23T06:19:20.179Z,81.63
2022-10-23T06:21:51.261Z,79.55
2022-10-23T06:24:18.532Z,79.85
2022-10-23T06:26:59.715Z,68.22
2022-10-23T06:29:38.936Z,71.40
2022-10-23T06:32:06.941Z,78.00
2022-10-23T06:34:35.121Z,70.05
2022-10-23T06:37:02.986Z,85.45
2022-10-23T06:39:47.900Z,96.95
2022-10-23T06:42:18.089Z,83.40
2022-10-23T06:44:54.276Z,166.65
2022-10-23T06:47:39.908Z,130.00
2022-10-23T06:50:26.885Z,203.00
2022-10-23T06:52:57.397Z,158.57
2022-10-23T06:55:24.921Z,168.38
2022-10-23T06:57:52.022Z,249.60
2022-10-23T07:00:21.531Z,250.75
2022-10-23T07:02:53.122Z,236.02
2022-10-23T07:05:20.777Z,125.85
2022-10-23T07:07:48.383Z,93.28
2022-10-23T07:10:22.076Z,87.57
2022-10-23T07:12:56.584Z,109.30
2022-10-23T07:15:46.807Z,97.60
2022-10-23T07:18:21.124Z,164.02
2022-10-23T07:21:09.570Z,111.00
2022-10-23T07:23:38.925Z,91.18
2022-10-23T07:26:10.548Z,91.32
2022-10-23T07:28:38.873Z,74.45
2022-10-23T07:31:06.607Z,78.65
2022-10-23T07:33:54.127Z,79.80
2022-10-23T07:36:22.373Z,58.97
2022-10-23T07:38:51.381Z,48.97
2022-10-23T07:41:19.304Z,45.05
2022-10-23T07:43:46.982Z,29.48
2022-10-23T07:46:15.148Z,29.10
2022-10-23T07:48:43.077Z,37.50
2022-10-23T07:51:15.933Z,39.28
2022-10-23T07:56:32.280Z,34.45
2022-10-23T07:59:22.922Z,37.10
2022-10-23T08:01:56.622Z,43.22
2022-10-23T08:04:37.601Z,72.33
2022-10-23T08:07:23.482Z,58.05
2022-10-23T08:09:53.820Z,63.30
2022-10-23T08:12:21.260Z,58.63
2022-10-23T08:14:48.777Z,139.40
2022-10-23T08:17:16.284Z,74.55
2022-10-23T08:20:06.397Z,60.00
2022-10-23T08:22:40.531Z,56.93
2022-10-23T08:25:09.123Z,54.45
2022-10-23T08:27:37.066Z,71.90
2022-10-23T08:30:05.062Z,50.22
2022-10-23T08:32:32.687Z,58.10
2022-10-23T08:35:04.062Z,53.75
2022-10-23T08:37:33.491Z,41.10
2022-10-23T08:40:00.842Z,81.35
2022-10-23T08:42:56.430Z,71.95
2022-10-23T08:45:43.178Z,71.80
2022-10-23T08:48:33.297Z,57.80
2022-10-23T08:51:40.246Z,62.25
2022-10-23T08:54:40.384Z,63.10
2022-10-23T08:57:15.054Z,56.72
2022-10-23T09:02:43.129Z,46.15
2022-10-23T09:05:39.458Z,56.65
2022-10-23T09:08:10.144Z,63.92
2022-10-23T09:10:58.816Z,47.60
2022-10-23T09:13:47.914Z,47.20
2022-10-23T09:16:18.036Z,48.85
2022-10-23T09:18:48.347Z,49.13
2022-10-23T09:21:16.300Z,50.78
2022-10-23T09:23:43.598Z,49.80
2022-10-23T09:26:19.068Z,44.42
2022-10-23T09:29:14.346Z,46.65
2022-10-23T09:31:52.815Z,48.92
2022-10-23T09:34:24.671Z,42.70
2022-10-23T09:39:34.118Z,45.35
2022-10-23T09:42:13.948Z,44.15
2022-10-23T09:44:50.187Z,87.72
2022-10-23T09:47:24.368Z,50.25
2022-10-23T09:49:57.112Z,49.38
2022-10-23T09:52:35.846Z,47.55
2022-10-23T09:55:19.009Z,68.53
2022-10-23T09:57:47.322Z,92.07
2022-10-23T10:00:20.587Z,56.95
2022-10-23T10:03:19.340Z,124.97
2022-10-23T10:06:03.005Z,57.88
2022-10-23T10:08:44.281Z,45.22
2022-10-23T10:11:23.661Z,46.95
2022-10-23T10:14:01.973Z,43.42
2022-10-23T10:16:44.277Z,45.28
2022-10-23T10:19:54.433Z,46.70
2022-10-23T10:22:39.471Z,44.38
2022-10-23T10:28:04.435Z,49.90
2022-10-23T10:31:11.307Z,45.40
2022-10-23T10:34:12.486Z,45.95
2022-10-23T10:36:54.852Z,46.92
2022-10-23T10:39:44.448Z,48.78
2022-10-23T10:42:23.335Z,45.20
2022-10-23T10:45:08.676Z,43.38
2022-10-23T10:48:03.763Z,48.80
2022-10-23T10:50:59.394Z,44.10
2022-10-23T10:53:47.337Z,49.75
2022-10-23T10:56:17.701Z,43.40
2022-10-23T10:58:53.242Z,46.00
2022-10-23T11:01:27.556Z,55.92
2022-10-23T11:04:06.999Z,62.38
2022-10-23T11:06:37.254Z,56.58
2022-10-23T11:09:38.366Z,55.65
2022-10-23T11:12:05.696Z,56.50
2022-10-23T11:14:34.810Z,58.38
2022-10-23T11:17:24.392Z,54.58
2022-10-23T11:20:05.230Z,48.28
2022-10-23T11:22:51.567Z,39.53
2022-10-23T11:25:28.924Z,41.95
2022-10-23T11:28:28.675Z,33.95
2022-10-23T11:31:33.835Z,38.00
2022-10-23T11:34:19.379Z,33.50
2022-10-23T11:36:58.545Z,38.03
2022-10-23T11:39:30.961Z,45.45
2022-10-23T11:42:05.831Z,50.25
2022-10-23T11:44:45.957Z,40.85
2022-10-23T11:48:05.274Z,36.22
2022-10-23T11:51:00.340Z,35.28
2022-10-23T11:53:33.062Z,39.00
2022-10-23T11:56:20.461Z,54.60
2022-10-23T11:59:27.701Z,41.15
2022-10-23T12:02:00.968Z,73.22
2022-10-23T12:04:50.437Z,51.08
2022-10-23T12:07:25.403Z,51.22
2022-10-23T12:10:02.135Z,38.63
2022-10-23T12:12:40.899Z,35.25
2022-10-23T12:15:19.138Z,43.70
2022-10-23T12:17:48.672Z,38.53
2022-10-23T12:20:29.431Z,42.33
2022-10-23T12:23:21.388Z,43.53
2022-10-23T12:26:12.805Z,37.15
2022-10-23T12:28:49.222Z,35.13
2022-10-23T12:31:52.278Z,38.35
2022-10-23T12:34:28.185Z,38.45
2022-10-23T12:37:21.842Z,44.58
2022-10-23T12:39:56.845Z,45.33
2022-10-23T12:42:29.163Z,48.65
2022-10-23T12:45:20.510Z,43.28
2022-10-23T12:47:49.249Z,47.53
2022-10-23T12:50:25.584Z,42.22
2022-10-23T12:53:04.739Z,36.70
2022-10-23T12:55:57.350Z,37.15
2022-10-23T12:58:32.138Z,37.03
2022-10-23T13:01:05.352Z,41.58
2022-10-23T13:03:35.704Z,37.40
2022-10-23T13:06:05.382Z,40.67
2022-10-23T13:08:42.231Z,36.65
2022-10-23T13:11:35.101Z,39.15
2022-10-23T13:14:27.356Z,41.20
2022-10-23T13:17:02.379Z,51.72
2022-10-23T13:19:30.366Z,60.08
2022-10-23T13:21:58.704Z,69.63
2022-10-23T13:24:28.711Z,55.83
2022-10-23T13:26:57.441Z,57.40
2022-10-23T13:29:30.054Z,50.40
2022-10-23T13:31:58.281Z,44.88
2022-10-23T13:34:30.604Z,45.88
2022-10-23T13:37:04.102Z,44.53
2022-10-23T13:39:33.980Z,43.60
2022-10-23T13:42:11.902Z,45.00
2022-10-23T13:44:39.629Z,40.72
2022-10-23T13:47:11.194Z,38.05
2022-10-23T13:49:39.442Z,45.15
2022-10-23T13:52:12.735Z,37.22
2022-10-23T13:54:40.247Z,30.17
2022-10-23T13:57:13.718Z,30.05
2022-10-23T13:59:43.722Z,41.70
2022-10-23T14:02:20.770Z,50.53
2022-10-23T14:04:50.086Z,59.20
2022-10-23T14:07:17.329Z,30.45
2022-10-23T14:09:45.081Z,38.60
2022-10-23T14:12:12.497Z,36.13
2022-10-23T14:14:39.943Z,37.83
2022-10-23T14:17:07.361Z,42.10
2022-10-23T14:22:11.711Z,44.00
2022-10-23T14:24:39.387Z,59.13
2022-10-23T14:27:06.598Z,49.67
2022-10-23T14:29:34.445Z,98.03
2022-10-23T14:32:01.675Z,77.47
2022-10-23T14:34:29.260Z,66.00
2022-10-23T14:37:08.083Z,101.35
2022-10-23T14:39:36.310Z,106.90
2022-10-23T14:42:03.802Z,85.78
2022-10-23T14:44:33.814Z,61.08
2022-10-23T14:47:03.093Z,47.60
2022-10-23T14:49:31.664Z,90.60
2022-10-23T14:52:00.922Z,81.40
2022-10-23T14:54:35.222Z,68.53
2022-10-23T14:57:03.476Z,58.95
2022-10-23T14:59:31.051Z,68.50
2022-10-23T15:01:58.582Z,87.45
2022-10-23T15:04:26.155Z,96.00
2022-10-23T15:06:53.435Z,310.83
2022-10-23T15:09:20.954Z,419.90
2022-10-23T15:11:48.242Z,307.15
2022-10-23T15:14:26.405Z,227.63
2022-10-23T15:16:53.587Z,176.57
2022-10-23T15:19:22.466Z,192.52
2022-10-23T15:21:50.241Z,190.32
2022-10-23T15:24:22.145Z,214.23
2022-10-23T15:26:51.608Z,232.90
2022-10-23T15:29:23.065Z,216.93
2022-10-23T15:31:57.722Z,270.92
2022-10-23T15:36:54.706Z,108.38
2022-10-23T15:39:25.437Z,95.07
2022-10-23T15:41:55.500Z,85.97
2022-10-23T15:44:25.764Z,90.03
2022-10-23T15:46:53.275Z,97.38
2022-10-23T15:49:20.835Z,130.55
2022-10-23T15:51:48.224Z,123.47
2022-10-23T15:54:19.166Z,153.32
2022-10-23T15:56:49.320Z,159.40
2022-10-23T15:59:19.257Z,132.43
2022-10-23T16:01:46.988Z,157.07
2022-10-23T16:04:16.178Z,160.23
2022-10-23T16:06:45.028Z,208.73
2022-10-23T16:09:13.100Z,227.50
2022-10-23T16:11:42.011Z,223.60
2022-10-23T16:14:13.957Z,212.95
2022-10-23T16:16:41.709Z,219.90
2022-10-23T16:19:11.492Z,137.68
2022-10-23T16:21:38.776Z,117.32
2022-10-23T16:24:08.879Z,115.93
2022-10-23T16:26:37.127Z,108.90
2022-10-23T16:29:07.373Z,124.78
2022-10-23T16:31:37.124Z,174.25
2022-10-23T16:34:05.607Z,148.10
2022-10-23T16:36:34.172Z,133.35
2022-10-23T16:39:09.154Z,147.13
2022-10-23T16:41:55.029Z,140.85
2022-10-23T16:44:25.812Z,176.75
2022-10-23T16:47:02.290Z,132.15
2022-10-23T16:49:32.230Z,90.15
2022-10-23T16:51:59.454Z,94.82
2022-10-23T16:54:26.861Z,151.75
2022-10-23T16:56:54.153Z,161.98
2022-10-23T16:59:21.547Z,162.20
2022-10-23T17:01:49.240Z,114.25
2022-10-23T17:04:16.789Z,95.82
2022-10-23T17:06:46.973Z,105.20
2022-10-23T17:09:15.421Z,99.25
2022-10-23T17:11:45.026Z,122.40
2022-10-23T17:14:16.979Z,116.03
2022-10-23T17:16:45.594Z,138.30
2022-10-23T17:19:33.137Z,117.05
2022-10-23T17:22:01.648Z,105.63
2022-10-23T17:24:29.163Z,128.45
2022-10-23T17:26:56.988Z,193.10
2022-10-23T17:29:24.493Z,132.38
2022-10-23T17:31:51.850Z,121.47
2022-10-23T17:34:22.253Z,92.72
2022-10-23T17:36:52.147Z,108.90
2022-10-23T17:39:23.082Z,121.85
2022-10-23T17:41:54.287Z,168.27
2022-10-23T17:44:22.284Z,173.82
2022-10-23T17:46:53.879Z,139.23
2022-10-23T17:49:24.880Z,237.55
2022-10-23T17:51:56.684Z,272.08
2022-10-23T17:54:25.177Z,255.10
2022-10-23T17:56:52.351Z,370.85
2022-10-23T17:59:19.935Z,254.43
2022-10-23T18:01:48.496Z,277.60
2022-10-23T18:04:18.528Z,125.95
2022-10-23T18:06:51.149Z,360.52
2022-10-23T18:09:19.136Z,390.77
2022-10-23T18:11:49.419Z,438.52
2022-10-23T18:14:18.959Z,307.60
2022-10-23T18:16:46.544Z,380.70
2022-10-23T18:19:15.541Z,161.13
2022-10-23T18:21:42.669Z,441.15
2022-10-23T18:24:13.550Z,252.40
2022-10-23T18:26:42.246Z,280.70
2022-10-23T18:29:11.757Z,345.60
2022-10-23T18:31:39.280Z,298.15
2022-10-23T18:34:12.420Z,207.10
2022-10-23T18:36:41.170Z,309.00
2022-10-23T18:39:12.369Z,210.95
2022-10-23T18:41:41.536Z,192.10
2022-10-23T18:44:13.910Z,280.92
2022-10-23T18:46:40.961Z,255.40
2022-10-23T18:49:08.475Z,222.35
2022-10-23T18:51:36.997Z,237.18
2022-10-23T18:54:08.449Z,124.22
2022-10-23T18:56:36.204Z,253.82
2022-10-23T18:59:05.528Z,169.15
2022-10-23T19:01:33.817Z,258.83
2022-10-23T19:04:03.062Z,288.98
2022-10-23T19:06:31.332Z,106.20
2022-10-23T19:09:01.483Z,262.05
2022-10-23T19:11:29.186Z,318.50
2022-10-23T19:13:56.808Z,289.27
2022-10-23T19:16:36.066Z,167.68
2022-10-23T19:19:22.765Z,284.63
2022-10-23T19:21:50.581Z,288.63
2022-10-23T19:24:25.843Z,298.70
2022-10-23T19:26:52.935Z,110.78
2022-10-23T19:29:23.267Z,102.55
2022-10-23T19:31:50.673Z,102.32
2022-10-23T19:34:20.159Z,217.93
2022-10-23T19:36:48.622Z,196.18
2022-10-23T19:39:16.568Z,161.63
2022-10-23T19:41:43.780Z,98.93
2022-10-23T19:44:12.979Z,103.20
2022-10-23T19:46:40.023Z,155.45
2022-10-23T19:49:08.830Z,93.75
2022-10-23T19:51:36.355Z,104.15
2022-10-23T19:54:04.117Z,102.53
2022-10-23T19:56:31.857Z,112.15
2022-10-23T19:58:59.038Z,118.65
2022-10-23T20:01:26.228Z,190.27
2022-10-23T20:03:55.495Z,233.95
2022-10-23T20:06:25.892Z,103.43
2022-10-23T20:08:53.709Z,86.05
2022-10-23T20:11:28.210Z,137.80
2022-10-23T20:13:59.140Z,86.57
2022-10-23T20:16:29.725Z,86.85
2022-10-23T20:18:58.070Z,87.57
2022-10-23T20:21:25.525Z,110.22
2022-10-23T20:23:52.908Z,90.72
2022-10-23T20:26:23.281Z,87.03
2022-10-23T20:28:55.157Z,74.60
2022-10-23T20:31:25.382Z,84.07
2022-10-23T20:33:53.044Z,124.70
2022-10-23T20:36:25.328Z,98.90
2022-10-23T20:38:53.300Z,90.07
2022-10-23T20:41:21.006Z,83.55
2022-10-23T20:43:48.476Z,89.07
2022-10-23T20:46:15.742Z,87.53
2022-10-23T20:48:45.004Z,100.50
2022-10-23T20:51:14.617Z,120.22
2022-10-23T20:53:43.448Z,102.38
2022-10-23T20:56:23.565Z,99.20
2022-10-23T20:58:50.889Z,130.65
2022-10-23T21:01:18.658Z,166.90
2022-10-23T21:03:53.020Z,117.38
2022-10-23T21:06:20.297Z,107.25
2022-10-23T21:08:47.674Z,117.07
2022-10-23T21:11:17.451Z,110.40
2022-10-23T21:13:45.112Z,184.00
2022-10-23T21:16:18.308Z,96.72
2022-10-23T21:18:46.865Z,88.72
2022-10-23T21:21:19.287Z,80.75
2022-10-23T21:23:48.483Z,124.70
2022-10-23T21:26:17.502Z,86.60
2022-10-23T21:28:56.125Z,78.93
2022-10-23T21:31:33.866Z,64.63
2022-10-23T21:34:01.313Z,85.22
2022-10-23T21:36:31.055Z,80.00
2022-10-23T21:39:01.588Z,88.72
2022-10-23T21:41:32.337Z,86.30
2022-10-23T21:44:03.751Z,83.47
2022-10-23T21:46:33.072Z,103.60
2022-10-23T21:49:01.000Z,100.35
2022-10-23T21:51:38.206Z,123.65
2022-10-23T21:54:07.556Z,148.20
2022-10-23T21:56:43.673Z,80.95
2022-10-23T21:59:13.452Z,67.72
2022-10-23T22:01:43.156Z,86.95
2022-10-23T22:04:14.055Z,69.60
2022-10-23T22:06:45.378Z,59.53
2022-10-23T22:09:14.966Z,74.60
2022-10-23T22:11:42.443Z,70.03
2022-10-23T22:14:09.626Z,67.90
2022-10-23T22:16:36.682Z,79.82
2022-10-23T22:19:04.349Z,115.40
2022-10-23T22:21:31.960Z,73.15
2022-10-23T22:24:00.449Z,88.63
2022-10-23T22:26:33.819Z,72.25
2022-10-23T22:29:05.385Z,79.95
2022-10-23T22:31:34.146Z,49.40
2022-10-23T22:34:13.202Z,40.58
2022-10-23T22:36:50.034Z,53.30
2022-10-23T22:39:17.399Z,51.28
2022-10-23T22:41:44.410Z,53.15
2022-10-23T22:44:12.282Z,48.85
2022-10-23T22:46:39.229Z,61.33
2022-10-23T22:51:39.669Z,41.20
2022-10-23T22:54:07.077Z,43.00
2022-10-23T22:56:34.599Z,71.18
2022-10-23T22:59:02.454Z,52.38
2022-10-23T23:01:36.842Z,42.58
2022-10-23T23:06:51.430Z,40.72
2022-10-23T23:09:18.803Z,36.30
2022-10-23T23:11:51.799Z,36.90
2022-10-23T23:14:23.681Z,35.50
2022-10-23T23:16:54.522Z,40.42
2022-10-23T23:19:23.233Z,36.53
2022-10-23T23:21:50.581Z,40.15
2022-10-23T23:24:17.906Z,43.75
2022-10-23T23:26:44.879Z,44.13
2022-10-23T23:29:12.491Z,42.22
2022-10-23T23:31:39.996Z,48.25
2022-10-23T23:34:07.177Z,54.35
2022-10-23T23:36:34.956Z,50.60
2022-10-23T23:41:34.703Z,53.72
2022-10-23T23:44:01.909Z,49.30
2022-10-23T23:46:28.937Z,50.47
2022-10-23T23:48:56.179Z,48.05
2022-10-23T23:51:25.737Z,47.83
2022-10-23T23:53:53.781Z,47.03
2022-10-23T23:56:21.794Z,46.30
2022-10-23T23:58:49.031Z,46.28
